createdAt,value
2023-09-03T00:00:55.796Z,4.40
2023-09-03T00:03:44.578Z,4.20
2023-09-03T00:06:12.668Z,4.40
2023-09-03T00:08:40.738Z,4.20
2023-09-03T00:11:09.011Z,4.60
2023-09-03T00:13:37.081Z,4.20
2023-09-03T00:16:05.186Z,4.60
2023-09-03T00:18:33.857Z,4.30
2023-09-03T00:21:06.595Z,4.20
2023-09-03T00:23:34.852Z,4.00
2023-09-03T00:26:03.553Z,4.10
2023-09-03T00:28:32.391Z,4.40
2023-09-03T00:31:05.309Z,4.10
2023-09-03T00:33:33.542Z,4.40
2023-09-03T00:36:03.666Z,4.50
2023-09-03T00:38:32.916Z,4.80
2023-09-03T00:41:00.981Z,4.80
2023-09-03T00:43:29.175Z,4.90
2023-09-03T00:45:58.038Z,4.80
2023-09-03T00:48:30.271Z,5.00
2023-09-03T00:51:03.144Z,5.00
2023-09-03T00:53:32.428Z,4.70
2023-09-03T00:56:00.891Z,4.80
2023-09-03T00:58:29.182Z,4.60
2023-09-03T01:00:58.315Z,4.80
2023-09-03T01:03:27.516Z,4.20
2023-09-03T01:05:55.800Z,5.20
2023-09-03T01:08:24.977Z,5.50
2023-09-03T01:11:05.401Z,5.80
2023-09-03T01:13:46.079Z,5.80
2023-09-03T01:16:26.240Z,5.80
2023-09-03T01:18:56.753Z,5.70
2023-09-03T01:21:49.915Z,5.20
2023-09-03T01:24:46.752Z,5.50
2023-09-03T01:27:59.720Z,5.30
2023-09-03T01:33:45.630Z,5.40
2023-09-03T01:36:15.598Z,6.20
2023-09-03T01:38:43.739Z,6.50
2023-09-03T01:41:12.105Z,6.50
2023-09-03T01:43:40.405Z,5.90
2023-09-03T01:46:19.844Z,5.70
2023-09-03T01:49:12.719Z,6.80
2023-09-03T01:52:02.785Z,5.60
2023-09-03T01:54:35.796Z,5.30
2023-09-03T01:57:13.844Z,5.50
2023-09-03T01:59:49.746Z,5.80
2023-09-03T02:02:19.827Z,5.60
2023-09-03T02:04:48.102Z,5.50
2023-09-03T02:07:16.455Z,5.50
2023-09-03T02:09:44.520Z,5.90
2023-09-03T02:12:12.538Z,7.10
2023-09-03T02:14:40.498Z,5.40
2023-09-03T02:17:10.426Z,5.90
2023-09-03T02:19:38.492Z,5.70
2023-09-03T02:22:06.508Z,6.20
2023-09-03T02:24:34.443Z,6.40
2023-09-03T02:27:02.506Z,6.50
2023-09-03T02:29:30.536Z,6.30
2023-09-03T02:31:58.589Z,6.80
2023-09-03T02:34:27.492Z,6.30
2023-09-03T02:36:55.767Z,6.60
2023-09-03T02:39:24.332Z,6.60
2023-09-03T02:41:53.437Z,6.10
2023-09-03T02:44:22.772Z,6.60
2023-09-03T02:46:51.413Z,5.80
2023-09-03T02:49:19.417Z,6.20
2023-09-03T02:51:47.572Z,6.50
2023-09-03T02:54:15.841Z,6.50
2023-09-03T02:56:44.003Z,6.40
2023-09-03T02:59:12.181Z,6.40
2023-09-03T03:01:41.281Z,6.60
2023-09-03T03:04:10.265Z,6.30
2023-09-03T03:06:38.288Z,6.20
2023-09-03T03:09:06.341Z,6.10
2023-09-03T03:11:34.725Z,6.50
2023-09-03T03:14:03.585Z,6.50
2023-09-03T03:16:34.712Z,6.80
2023-09-03T03:19:06.165Z,6.40
2023-09-03T03:21:37.259Z,7.10
2023-09-03T03:24:07.106Z,6.60
2023-09-03T03:26:39.662Z,6.80
2023-09-03T03:29:11.020Z,6.70
2023-09-03T03:31:45.050Z,6.50
2023-09-03T03:34:13.626Z,6.80
2023-09-03T03:36:42.733Z,6.80
2023-09-03T03:39:10.910Z,6.90
2023-09-03T03:41:39.528Z,6.30
2023-09-03T03:44:11.133Z,6.10
2023-09-03T03:46:39.627Z,6.60
2023-09-03T03:49:07.686Z,6.40
2023-09-03T03:51:36.333Z,6.60
2023-09-03T03:54:05.691Z,6.70
2023-09-03T03:56:34.398Z,6.50
2023-09-03T03:59:02.734Z,6.90
2023-09-03T04:01:31.219Z,6.90
2023-09-03T04:03:59.798Z,7.60
2023-09-03T04:06:29.211Z,7.50
2023-09-03T04:08:57.584Z,8.10
2023-09-03T04:11:26.062Z,8.30
2023-09-03T04:13:54.202Z,8.20
2023-09-03T04:16:26.077Z,7.60
2023-09-03T04:18:54.684Z,7.30
2023-09-03T04:21:22.945Z,7.40
2023-09-03T04:23:51.042Z,7.30
2023-09-03T04:26:19.291Z,7.10
2023-09-03T04:28:51.364Z,7.60
2023-09-03T04:31:19.506Z,7.40
2023-09-03T04:33:47.789Z,7.30
2023-09-03T04:36:15.926Z,7.30
2023-09-03T04:38:44.174Z,7.30
2023-09-03T04:41:14.810Z,7.00
2023-09-03T04:43:49.548Z,7.20
2023-09-03T04:46:23.400Z,7.10
2023-09-03T04:48:51.456Z,7.20
2023-09-03T04:51:19.598Z,6.80
2023-09-03T04:53:49.728Z,6.80
2023-09-03T04:56:18.208Z,7.00
2023-09-03T04:58:47.653Z,6.50
2023-09-03T05:01:16.461Z,6.80
2023-09-03T05:03:46.193Z,6.80
2023-09-03T05:06:17.073Z,6.20
2023-09-03T05:08:46.871Z,6.10
2023-09-03T05:11:17.943Z,6.40
2023-09-03T05:13:47.865Z,5.90
2023-09-03T05:16:17.908Z,6.00
2023-09-03T05:18:46.262Z,6.70
2023-09-03T05:21:15.351Z,6.40
2023-09-03T05:23:43.749Z,6.80
2023-09-03T05:26:12.053Z,6.00
2023-09-03T05:28:42.157Z,6.40
2023-09-03T05:31:11.975Z,6.90
2023-09-03T05:33:40.979Z,6.70
2023-09-03T05:36:09.703Z,6.40
2023-09-03T05:38:37.735Z,7.30
2023-09-03T05:41:05.758Z,7.10
2023-09-03T05:43:33.843Z,8.30
2023-09-03T05:46:02.168Z,8.10
2023-09-03T05:48:31.512Z,7.80
2023-09-03T05:51:05.450Z,7.10
2023-09-03T05:53:36.392Z,6.70
2023-09-03T05:56:06.366Z,7.60
2023-09-03T05:58:34.649Z,7.00
2023-09-03T06:01:08.188Z,6.70
2023-09-03T06:03:36.930Z,6.40
2023-09-03T06:06:10.153Z,7.40
2023-09-03T06:08:39.513Z,8.70
2023-09-03T06:11:07.545Z,6.90
2023-09-03T06:13:35.655Z,6.60
2023-09-03T06:16:03.877Z,6.80
2023-09-03T06:18:32.083Z,7.00
2023-09-03T06:21:00.097Z,6.20
2023-09-03T06:23:28.245Z,6.70
2023-09-03T06:25:56.339Z,6.90
2023-09-03T06:28:25.014Z,6.00
2023-09-03T06:30:53.857Z,6.40
2023-09-03T06:33:21.884Z,6.60
2023-09-03T06:35:49.911Z,6.80
2023-09-03T06:38:18.095Z,6.80
2023-09-03T06:40:46.362Z,6.60
2023-09-03T06:43:14.345Z,6.60
2023-09-03T06:45:42.493Z,6.90
2023-09-03T06:48:10.675Z,6.90
2023-09-03T06:50:42.692Z,6.20
2023-09-03T06:53:12.137Z,6.30
2023-09-03T06:55:40.118Z,6.30
2023-09-03T06:58:08.194Z,6.80
2023-09-03T07:00:36.399Z,6.20
2023-09-03T07:03:04.889Z,6.30
2023-09-03T07:05:33.009Z,7.40
2023-09-03T07:08:01.095Z,6.50
2023-09-03T07:10:29.201Z,6.40
2023-09-03T07:12:57.210Z,6.30
2023-09-03T07:15:25.506Z,6.20
2023-09-03T07:17:53.585Z,6.50
2023-09-03T07:20:21.938Z,6.80
2023-09-03T07:22:50.114Z,6.60
2023-09-03T07:25:18.383Z,6.40
2023-09-03T07:27:46.785Z,6.30
2023-09-03T07:30:14.947Z,6.10
2023-09-03T07:32:43.237Z,6.30
2023-09-03T07:35:12.016Z,6.70
2023-09-03T07:37:40.207Z,6.40
2023-09-03T07:40:09.533Z,6.80
2023-09-03T07:42:37.553Z,6.60
2023-09-03T07:45:06.036Z,5.90
2023-09-03T07:47:34.223Z,6.10
2023-09-03T07:50:02.699Z,5.60
2023-09-03T07:52:30.955Z,5.50
2023-09-03T07:54:59.019Z,5.40
2023-09-03T07:57:29.247Z,5.30
2023-09-03T07:59:57.475Z,5.20
2023-09-03T08:02:25.476Z,5.10
2023-09-03T08:04:53.555Z,4.60
2023-09-03T08:07:21.724Z,4.70
2023-09-03T08:09:50.514Z,4.80
2023-09-03T08:12:18.508Z,4.50
2023-09-03T08:14:49.933Z,4.50
2023-09-03T08:17:18.109Z,5.30
2023-09-03T08:19:46.449Z,4.90
2023-09-03T08:22:14.661Z,4.60
2023-09-03T08:24:42.770Z,4.50
2023-09-03T08:27:10.798Z,4.20
2023-09-03T08:29:38.834Z,5.00
2023-09-03T08:32:07.561Z,4.10
2023-09-03T08:34:35.566Z,3.80
2023-09-03T08:37:03.918Z,4.10
2023-09-03T08:39:32.385Z,3.80
2023-09-03T08:42:00.954Z,3.80
2023-09-03T08:44:46.832Z,3.90
2023-09-03T08:47:18.309Z,3.20
2023-09-03T08:49:46.957Z,3.50
2023-09-03T08:52:17.348Z,3.30
2023-09-03T08:54:46.259Z,3.10
2023-09-03T08:57:14.465Z,2.50
2023-09-03T08:59:42.651Z,2.80
2023-09-03T09:02:14.552Z,2.70
2023-09-03T09:04:43.083Z,2.40
2023-09-03T09:07:11.357Z,2.40
2023-09-03T09:09:41.072Z,2.50
2023-09-03T09:12:34.739Z,2.50
2023-09-03T09:15:05.948Z,2.70
2023-09-03T09:17:41.482Z,2.80
2023-09-03T09:20:14.093Z,2.70
2023-09-03T09:22:49.970Z,2.80
2023-09-03T09:25:23.209Z,2.50
2023-09-03T09:27:54.236Z,2.30
2023-09-03T09:30:26.140Z,2.40
2023-09-03T09:33:08.785Z,2.30
2023-09-03T09:35:37.261Z,2.30
2023-09-03T09:38:06.983Z,2.50
2023-09-03T09:40:38.362Z,2.30
2023-09-03T09:43:10.793Z,2.20
2023-09-03T09:45:53.417Z,2.50
2023-09-03T09:48:21.654Z,2.30
2023-09-03T09:50:50.034Z,2.50
2023-09-03T09:53:24.960Z,2.30
2023-09-03T09:56:04.456Z,2.60
2023-09-03T09:58:37.344Z,2.40
2023-09-03T10:01:06.719Z,2.40
2023-09-03T10:03:46.377Z,2.80
2023-09-03T10:06:16.016Z,2.30
2023-09-03T10:08:51.553Z,2.40
2023-09-03T10:11:21.014Z,2.20
2023-09-03T10:13:50.415Z,2.10
2023-09-03T10:16:21.013Z,2.20
2023-09-03T10:18:51.488Z,2.20
2023-09-03T10:21:46.621Z,2.30
2023-09-03T10:24:18.941Z,2.20
2023-09-03T10:26:52.307Z,2.20
2023-09-03T10:29:23.127Z,2.40
2023-09-03T10:31:53.403Z,2.40
2023-09-03T10:34:21.956Z,2.10
2023-09-03T10:37:09.390Z,2.30
2023-09-03T10:39:39.908Z,2.10
2023-09-03T10:42:17.503Z,2.10
2023-09-03T10:44:51.625Z,2.30
2023-09-03T10:47:20.295Z,2.60
2023-09-03T10:49:50.907Z,2.60
2023-09-03T10:52:33.274Z,2.40
2023-09-03T10:55:21.458Z,2.20
2023-09-03T10:58:24.793Z,2.50
2023-09-03T11:01:27.846Z,2.30
2023-09-03T11:03:56.077Z,2.40
2023-09-03T11:06:29.135Z,2.30
2023-09-03T11:09:00.004Z,2.50
2023-09-03T11:11:34.847Z,2.10
2023-09-03T11:14:04.271Z,2.30
2023-09-03T11:16:41.625Z,2.20
2023-09-03T11:19:10.056Z,2.40
2023-09-03T11:21:39.086Z,2.40
2023-09-03T11:24:20.029Z,2.40
2023-09-03T11:27:05.037Z,2.20
2023-09-03T11:29:33.309Z,2.40
2023-09-03T11:32:01.848Z,2.30
2023-09-03T11:34:30.902Z,2.40
2023-09-03T11:36:59.353Z,2.60
2023-09-03T11:39:28.053Z,2.60
2023-09-03T11:41:56.330Z,2.60
2023-09-03T11:44:25.980Z,2.70
2023-09-03T11:47:02.296Z,2.30
2023-09-03T11:49:30.634Z,2.60
2023-09-03T11:52:14.125Z,2.40
2023-09-03T11:54:43.384Z,2.40
2023-09-03T11:57:16.860Z,2.40
2023-09-03T11:59:45.243Z,4.30
2023-09-03T12:02:14.240Z,3.00
2023-09-03T12:04:44.289Z,2.50
2023-09-03T12:07:17.770Z,2.70
2023-09-03T12:09:49.325Z,2.50
2023-09-03T12:12:18.261Z,2.80
2023-09-03T12:14:46.436Z,2.40
2023-09-03T12:17:27.792Z,2.60
2023-09-03T12:19:56.412Z,2.80
2023-09-03T12:22:24.588Z,3.30
2023-09-03T12:24:54.830Z,2.90
2023-09-03T12:27:23.126Z,2.90
2023-09-03T12:29:56.589Z,2.50
2023-09-03T12:32:38.874Z,2.90
2023-09-03T12:35:17.649Z,2.70
2023-09-03T12:37:46.454Z,2.60
2023-09-03T12:40:14.799Z,2.70
2023-09-03T12:42:42.972Z,2.50
2023-09-03T12:45:11.460Z,2.60
2023-09-03T12:47:39.670Z,2.40
2023-09-03T12:50:09.053Z,2.50
2023-09-03T12:52:37.348Z,3.00
2023-09-03T12:55:06.263Z,2.50
2023-09-03T12:57:34.429Z,2.40
2023-09-03T13:00:06.356Z,2.30
2023-09-03T13:02:35.077Z,2.20
2023-09-03T13:05:03.470Z,2.40
2023-09-03T13:07:31.666Z,2.40
2023-09-03T13:09:59.825Z,2.40
2023-09-03T13:12:27.827Z,2.60
2023-09-03T13:14:56.058Z,2.50
2023-09-03T13:17:26.055Z,2.60
2023-09-03T13:19:54.372Z,2.60
2023-09-03T13:22:22.486Z,2.50
2023-09-03T13:24:50.684Z,2.60
2023-09-03T13:27:18.756Z,3.00
2023-09-03T13:29:46.824Z,2.60
2023-09-03T13:32:15.417Z,2.90
2023-09-03T13:34:44.806Z,3.00
2023-09-03T13:37:12.881Z,2.90
2023-09-03T13:39:41.157Z,2.70
2023-09-03T13:42:09.327Z,2.90
2023-09-03T13:44:37.506Z,2.60
2023-09-03T13:47:07.215Z,2.90
2023-09-03T13:49:35.248Z,2.70
2023-09-03T13:52:04.001Z,2.80
2023-09-03T13:54:32.458Z,2.70
2023-09-03T13:57:00.630Z,2.80
2023-09-03T13:59:28.794Z,2.70
2023-09-03T14:01:56.979Z,2.60
2023-09-03T14:04:24.982Z,2.90
2023-09-03T14:06:53.119Z,2.90
2023-09-03T14:09:21.180Z,2.80
2023-09-03T14:11:49.157Z,2.80
2023-09-03T14:14:17.327Z,3.00
2023-09-03T14:16:45.341Z,2.80
2023-09-03T14:19:13.663Z,2.70
2023-09-03T14:21:41.978Z,2.70
2023-09-03T14:24:10.046Z,3.00
2023-09-03T14:26:38.191Z,2.90
2023-09-03T14:29:11.175Z,2.70
2023-09-03T14:31:41.838Z,2.90
2023-09-03T14:34:09.853Z,2.80
2023-09-03T14:36:37.799Z,2.60
2023-09-03T14:39:06.728Z,2.60
2023-09-03T14:41:34.723Z,2.60
2023-09-03T14:44:03.293Z,3.10
2023-09-03T14:46:31.689Z,3.60
2023-09-03T14:49:00.636Z,3.60
2023-09-03T14:51:28.713Z,3.20
2023-09-03T14:53:57.799Z,3.10
2023-09-03T14:56:25.873Z,2.60
2023-09-03T14:58:53.946Z,2.70
2023-09-03T15:01:25.208Z,2.60
2023-09-03T15:03:53.938Z,2.20
2023-09-03T15:06:23.024Z,2.60
2023-09-03T15:08:51.460Z,2.70
2023-09-03T15:11:19.615Z,2.60
2023-09-03T15:13:54.107Z,2.80
2023-09-03T15:16:22.486Z,2.60
2023-09-03T15:18:50.696Z,2.60
2023-09-03T15:21:19.234Z,2.70
2023-09-03T15:23:47.296Z,2.90
2023-09-03T15:26:15.518Z,3.00
2023-09-03T15:28:43.679Z,2.80
2023-09-03T15:31:12.790Z,3.00
2023-09-03T15:33:41.063Z,2.90
2023-09-03T15:36:09.196Z,2.60
2023-09-03T15:38:38.773Z,2.60
2023-09-03T15:41:07.130Z,2.70
2023-09-03T15:43:35.218Z,2.60
2023-09-03T15:46:03.489Z,2.70
2023-09-03T15:48:31.743Z,2.60
2023-09-03T15:50:59.844Z,2.50
2023-09-03T15:53:29.171Z,2.60
2023-09-03T15:55:57.842Z,2.70
2023-09-03T15:58:26.235Z,2.60
2023-09-03T16:00:54.341Z,2.60
2023-09-03T16:03:23.337Z,2.70
2023-09-03T16:05:51.609Z,2.70
2023-09-03T16:08:20.215Z,2.70
2023-09-03T16:10:51.115Z,2.90
2023-09-03T16:13:20.152Z,2.80
2023-09-03T16:15:48.300Z,2.80
2023-09-03T16:18:16.612Z,2.60
2023-09-03T16:20:45.191Z,2.50
2023-09-03T16:23:13.420Z,2.80
2023-09-03T16:25:41.476Z,2.80
2023-09-03T16:28:10.430Z,2.80
2023-09-03T16:30:38.657Z,2.50
2023-09-03T16:33:06.716Z,2.90
2023-09-03T16:35:36.490Z,2.60
2023-09-03T16:38:05.203Z,2.80
2023-09-03T16:40:33.564Z,2.50
2023-09-03T16:43:01.635Z,2.60
2023-09-03T16:45:29.951Z,2.80
2023-09-03T16:47:58.182Z,2.70
2023-09-03T16:50:26.249Z,2.90
2023-09-03T16:52:54.223Z,2.90
2023-09-03T16:55:22.461Z,3.00
2023-09-03T16:57:50.657Z,2.90
2023-09-03T17:00:18.887Z,2.90
2023-09-03T17:02:47.114Z,3.00
2023-09-03T17:05:15.336Z,2.80
2023-09-03T17:07:44.170Z,2.90
2023-09-03T17:10:12.382Z,2.80
2023-09-03T17:12:40.440Z,2.90
2023-09-03T17:15:09.414Z,2.70
2023-09-03T17:17:40.953Z,3.00
2023-09-03T17:20:11.250Z,2.90
2023-09-03T17:22:39.297Z,2.80
2023-09-03T17:25:07.632Z,2.80
2023-09-03T17:27:35.656Z,3.30
2023-09-03T17:30:03.913Z,2.70
2023-09-03T17:32:32.001Z,3.10
2023-09-03T17:35:00.210Z,3.10
2023-09-03T17:37:28.527Z,3.10
2023-09-03T17:39:56.999Z,3.10
2023-09-03T17:42:25.656Z,3.50
2023-09-03T17:44:53.721Z,3.30
2023-09-03T17:47:21.686Z,3.10
2023-09-03T17:49:49.643Z,3.20
2023-09-03T17:52:17.780Z,3.30
2023-09-03T17:54:45.806Z,3.90
2023-09-03T17:57:14.463Z,3.70
2023-09-03T17:59:42.498Z,3.60
2023-09-03T18:02:10.595Z,3.60
2023-09-03T18:04:41.709Z,3.10
2023-09-03T18:07:09.860Z,2.90
2023-09-03T18:09:38.605Z,2.90
2023-09-03T18:12:07.368Z,2.90
2023-09-03T18:14:35.625Z,3.00
2023-09-03T18:17:03.719Z,3.00
2023-09-03T18:19:32.920Z,2.90
2023-09-03T18:22:00.928Z,2.80
2023-09-03T18:24:28.870Z,2.90
2023-09-03T18:26:57.015Z,3.10
2023-09-03T18:29:25.080Z,2.90
2023-09-03T18:31:53.074Z,3.30
2023-09-03T18:34:21.845Z,3.20
2023-09-03T18:36:49.971Z,3.10
2023-09-03T18:39:18.203Z,3.00
2023-09-03T18:41:46.808Z,2.90
2023-09-03T18:44:14.878Z,2.90
2023-09-03T18:46:44.680Z,3.20
2023-09-03T18:49:14.129Z,3.20
2023-09-03T18:51:46.843Z,3.10
2023-09-03T18:54:14.961Z,3.60
2023-09-03T18:56:42.980Z,2.90
2023-09-03T18:59:11.357Z,3.20
2023-09-03T19:01:39.374Z,3.10
2023-09-03T19:04:07.442Z,3.10
2023-09-03T19:06:35.566Z,3.20
2023-09-03T19:09:04.032Z,3.20
2023-09-03T19:11:32.216Z,2.80
2023-09-03T19:14:00.297Z,3.10
2023-09-03T19:16:29.846Z,3.40
2023-09-03T19:18:57.938Z,3.20
2023-09-03T19:21:27.413Z,2.90
2023-09-03T19:23:55.441Z,3.00
2023-09-03T19:26:23.408Z,3.00
2023-09-03T19:28:51.576Z,3.80
2023-09-03T19:31:20.063Z,3.40
2023-09-03T19:33:48.238Z,3.10
2023-09-03T19:36:16.276Z,3.40
2023-09-03T19:38:44.294Z,3.10
2023-09-03T19:41:12.747Z,3.10
2023-09-03T19:43:40.820Z,3.50
2023-09-03T19:46:08.992Z,3.20
2023-09-03T19:48:37.185Z,3.60
2023-09-03T19:51:05.345Z,3.30
2023-09-03T19:53:34.082Z,3.90
2023-09-03T19:56:05.415Z,3.30
2023-09-03T19:58:34.549Z,3.70
2023-09-03T20:01:05.024Z,3.80
2023-09-03T20:03:34.038Z,3.80
2023-09-03T20:06:02.368Z,3.40
2023-09-03T20:08:31.922Z,3.70
2023-09-03T20:11:06.546Z,3.70
2023-09-03T20:13:34.730Z,3.60
2023-09-03T20:16:03.897Z,3.50
2023-09-03T20:18:32.414Z,3.60
2023-09-03T20:21:01.749Z,3.50
2023-09-03T20:23:30.336Z,3.60
2023-09-03T20:26:00.460Z,3.40
2023-09-03T20:28:43.394Z,4.00
2023-09-03T20:31:12.796Z,4.10
2023-09-03T20:33:40.851Z,3.90
2023-09-03T20:36:09.282Z,3.80
2023-09-03T20:38:37.454Z,3.90
2023-09-03T20:41:06.089Z,3.80
2023-09-03T20:43:35.613Z,4.30
2023-09-03T20:46:04.114Z,3.80
2023-09-03T20:48:33.394Z,4.20
2023-09-03T20:51:02.779Z,3.90
2023-09-03T20:53:31.662Z,3.50
2023-09-03T20:56:00.367Z,4.00
2023-09-03T20:58:28.785Z,4.00
2023-09-03T21:00:57.199Z,3.60
2023-09-03T21:03:25.519Z,4.00
2023-09-03T21:05:55.253Z,4.10
2023-09-03T21:08:25.586Z,3.70
2023-09-03T21:11:01.609Z,3.50
2023-09-03T21:13:30.916Z,3.70
2023-09-03T21:15:59.506Z,3.90
2023-09-03T21:18:29.405Z,4.00
2023-09-03T21:21:02.703Z,4.20
2023-09-03T21:23:32.430Z,5.60
2023-09-03T21:26:02.066Z,5.20
2023-09-03T21:28:30.126Z,5.10
2023-09-03T21:30:58.407Z,5.30
2023-09-03T21:33:26.770Z,5.50
2023-09-03T21:35:54.962Z,5.10
2023-09-03T21:38:23.908Z,4.90
2023-09-03T21:40:52.130Z,4.90
2023-09-03T21:43:20.125Z,4.90
2023-09-03T21:45:48.195Z,4.90
2023-09-03T21:48:16.684Z,5.10
2023-09-03T21:50:44.684Z,5.20
2023-09-03T21:53:12.666Z,5.20
2023-09-03T21:55:40.740Z,5.30
2023-09-03T21:58:08.809Z,5.20
2023-09-03T22:00:38.006Z,4.90
2023-09-03T22:03:06.395Z,5.00
2023-09-03T22:05:34.721Z,5.00
2023-09-03T22:08:02.763Z,4.90
2023-09-03T22:10:30.828Z,5.30
2023-09-03T22:12:59.077Z,4.80
2023-09-03T22:15:27.242Z,4.80
2023-09-03T22:17:55.460Z,4.90
2023-09-03T22:20:25.947Z,4.80
2023-09-03T22:22:54.248Z,4.90
2023-09-03T22:25:22.804Z,4.80
2023-09-03T22:27:50.873Z,4.90
2023-09-03T22:30:18.968Z,4.50
2023-09-03T22:32:47.219Z,4.40
2023-09-03T22:35:15.340Z,4.80
2023-09-03T22:37:44.567Z,4.10
2023-09-03T22:40:13.040Z,4.40
2023-09-03T22:42:41.143Z,4.30
2023-09-03T22:45:09.378Z,4.40
2023-09-03T22:47:37.635Z,4.40
2023-09-03T22:50:06.085Z,4.30
2023-09-03T22:52:34.444Z,4.50
2023-09-03T22:55:02.586Z,4.30
2023-09-03T22:57:30.690Z,4.60
2023-09-03T22:59:58.692Z,4.40
2023-09-03T23:02:26.840Z,4.10
2023-09-03T23:04:54.943Z,4.20
2023-09-03T23:07:23.075Z,4.30
2023-09-03T23:09:53.363Z,4.60
2023-09-03T23:12:21.892Z,4.40
2023-09-03T23:14:50.049Z,4.50
2023-09-03T23:17:18.329Z,4.10
2023-09-03T23:19:46.408Z,4.30
2023-09-03T23:22:14.570Z,4.50
2023-09-03T23:24:42.758Z,4.50
2023-09-03T23:27:10.813Z,4.60
2023-09-03T23:29:38.897Z,4.40
2023-09-03T23:32:06.937Z,4.30
2023-09-03T23:34:36.263Z,4.40
2023-09-03T23:37:05.025Z,4.50
2023-09-03T23:39:33.517Z,5.00
2023-09-03T23:42:01.698Z,4.70
2023-09-03T23:44:29.701Z,5.10
2023-09-03T23:47:07.119Z,4.90
2023-09-03T23:49:41.576Z,4.80
2023-09-03T23:52:09.987Z,4.90
2023-09-03T23:54:38.237Z,4.80
2023-09-03T23:57:06.394Z,4.90
2023-09-03T23:59:34.465Z,4.70
